Time;durP1;ratioP1;P1;durP2;ratioP2;P2;SDS_P1;SDS_P2;PMS_P1;PMS_P2;Temp;Humidity;BMP_temperature;BMP_pressure;BME280_temperature;BME280_humidity;BME280_pressure;Samples;Min_cycle;Max_cycle;Signal;HPM_P1;HPM_P2
2022/12/27 00:01:40;;;;;;;12.63;2.33;;;;;;;;;;5097512;28;20053;-46
2022/12/27 00:04:06;;;;;;;13.73;1.63;;;;;;;;;;5096871;27;20074;-44
2022/12/27 00:06:32;;;;;;;14.60;1.80;;;;;;;;;;5096513;28;20126;-46
2022/12/27 00:08:58;;;;;;;10.40;1.70;;;;;;;;;;5096953;27;20040;-43
2022/12/27 00:11:28;;;;;;;12.68;1.70;;;3.60;99.90;;;;;;5097845;27;20092;-43
2022/12/27 00:13:54;;;;;;;12.10;2.10;;;;;;;;;;5097050;27;20727;-45
2022/12/27 00:16:20;;;;;;;12.60;2.05;;;3.50;99.90;;;;;;5096402;27;20377;-46
2022/12/27 00:18:48;;;;;;;11.48;1.60;;;3.50;99.90;;;;;;5097667;27;20071;-45
2022/12/27 00:21:15;;;;;;;12.55;1.80;;;3.60;99.90;;;;;;5096670;28;20054;-44
2022/12/27 00:23:44;;;;;;;13.80;2.10;;;3.40;99.90;;;;;;5096406;27;20050;-44
2022/12/27 00:26:13;;;;;;;13.48;2.03;;;3.40;99.90;;;;;;5095875;27;20032;-46
2022/12/27 00:28:39;;;;;;;12.23;2.42;;;;;;;;;;5095118;27;20099;-44
2022/12/27 00:31:05;;;;;;;12.45;1.58;;;;;;;;;;5095421;27;20721;-43
2022/12/27 00:33:32;;;;;;;12.68;1.85;;;3.50;99.90;;;;;;5096530;27;20779;-44
2022/12/27 00:35:59;;;;;;;16.98;2.25;;;3.40;99.90;;;;;;5095177;28;20055;-44
2022/12/27 00:38:26;;;;;;;12.25;2.88;;;;;;;;;;5094574;27;20047;-45
2022/12/27 00:40:52;;;;;;;13.43;1.98;;;;;;;;;;5095787;27;20427;-43
2022/12/27 00:43:18;;;;;;;11.80;1.90;;;;;;;;;;5095600;27;20050;-44
2022/12/27 00:45:44;;;;;;;9.52;1.95;;;;;;;;;;5094510;28;20050;-45
2022/12/27 00:48:11;;;;;;;16.38;3.25;;;;;;;;;;5094059;27;20114;-45
2022/12/27 00:50:39;;;;;;;12.98;2.75;;;3.90;99.90;;;;;;5094784;27;20067;-46
2022/12/27 00:53:05;;;;;;;11.82;2.63;;;;;;;;;;5094395;28;20040;-43
2022/12/27 00:55:31;;;;;;;12.27;2.28;;;;;;;;;;5094535;27;20036;-45
2022/12/27 00:57:58;;;;;;;16.08;2.15;;;;;;;;;;5094100;28;20244;-46
2022/12/27 01:00:24;;;;;;;11.07;2.20;;;;;;;;;;5094014;27;20108;-44
2022/12/27 01:02:50;;;;;;;11.88;2.17;;;;;;;;;;5095381;27;20131;-43
2022/12/27 01:05:16;;;;;;;17.83;2.40;;;;;;;;;;5094502;27;20097;-46
2022/12/27 01:07:43;;;;;;;18.05;3.47;;;;;;;;;;5094896;28;20054;-43
2022/12/27 01:10:09;;;;;;;11.73;2.60;;;;;;;;;;5092756;27;20049;-48
2022/12/27 01:12:35;;;;;;;13.15;2.00;;;4.50;99.90;;;;;;5094375;28;20054;-43
2022/12/27 01:15:02;;;;;;;12.32;2.00;;;;;;;;;;5095646;28;20671;-43
2022/12/27 01:17:28;;;;;;;16.63;2.25;;;4.30;99.90;;;;;;5095383;27;22893;-46
2022/12/27 01:19:54;;;;;;;10.77;2.40;;;;;;;;;;5096556;27;20040;-46
2022/12/27 01:22:20;;;;;;;14.05;1.80;;;;;;;;;;5094640;28;20404;-46
2022/12/27 01:24:47;;;;;;;12.70;2.72;;;;;;;;;;5096276;27;20047;-45
2022/12/27 01:27:13;;;;;;;10.50;2.40;;;;;;;;;;5094963;27;20032;-43
2022/12/27 01:29:39;;;;;;;15.43;1.92;;;;;;;;;;5096004;27;20368;-45
2022/12/27 01:32:05;;;;;;;9.90;1.38;;;;;;;;;;5095032;27;20043;-44
2022/12/27 01:34:31;;;;;;;18.75;2.45;;;;;;;;;;5094358;27;20039;-44
2022/12/27 01:36:57;;;;;;;9.27;1.77;;;;;;;;;;5094437;28;20525;-43
2022/12/27 01:39:23;;;;;;;10.68;1.63;;;;;;;;;;5093126;27;20043;-47
2022/12/27 01:44:57;;;;;;;4.85;0.82;;;4.80;99.90;;;;;;5093785;27;20085;-44
2022/12/27 01:47:35;;;;;;;11.35;1.80;;;4.80;99.90;;;;;;5091689;28;20043;-44
2022/12/27 01:50:22;;;;;;;17.55;1.40;;;4.80;99.90;;;;;;5095020;27;20481;-43
2022/12/27 01:53:09;;;;;;;12.90;1.92;;;4.70;99.90;;;;;;5094269;27;20071;-45
2022/12/27 01:55:49;;;;;;;11.88;2.90;;;4.80;99.90;;;;;;5093521;27;20075;-48
2022/12/27 01:58:37;;;;;;;12.93;1.88;;;4.80;99.90;;;;;;5091695;27;20047;-46
2022/12/27 02:01:05;;;;;;;14.90;1.80;;;4.60;99.90;;;;;;5092887;27;20035;-44
2022/12/27 02:03:39;;;;;;;12.15;1.90;;;4.60;99.90;;;;;;5091615;28;20134;-45
2022/12/27 02:06:08;;;;;;;12.60;1.60;;;4.50;99.90;;;;;;5094792;27;20482;-44
2022/12/27 02:08:55;;;;;;;9.95;1.60;;;4.40;99.90;;;;;;5093567;27;20039;-44
2022/12/27 02:14:12;;;;;;;13.65;1.73;;;4.30;99.90;;;;;;5093398;27;20055;-43
2022/12/27 02:16:39;;;;;;;14.05;2.45;;;;;;;;;;5093991;27;20181;-48
2022/12/27 02:19:12;;;;;;;12.80;2.03;;;4.30;99.90;;;;;;5092548;27;20051;-43
2022/12/27 02:21:50;;;;;;;13.98;2.45;;;4.20;99.90;;;;;;5094133;28;20043;-42
2022/12/27 02:24:53;;;;;;;13.63;2.47;;;4.20;99.90;;;;;;5092598;27;20039;-45
2022/12/27 02:27:34;;;;;;;;;;;4.10;99.90;;;;;;5093826;27;20056;-43
2022/12/27 02:30:04;;;;;;;13.13;1.90;;;4.30;99.90;;;;;;5094163;27;19919;-45
2022/12/27 02:32:47;;;;;;;14.35;2.42;;;4.30;99.90;;;;;;5095409;27;20039;-42
2022/12/27 02:35:13;;;;;;;8.77;1.65;;;;;;;;;;5094352;27;20039;-44
2022/12/27 02:37:50;;;;;;;13.95;2.90;;;4.30;99.90;;;;;;5093941;27;24081;-43
2022/12/27 02:55:28;;;;;;;10.50;1.40;;;4.20;99.90;;;;;;5070606;27;20569;-44
2022/12/27 02:58:10;;;;;;;13.05;1.80;;;4.20;99.90;;;;;;5091426;28;20067;-44
2022/12/27 03:04:27;;;;;;;8.65;2.10;;;4.00;99.90;;;;;;5078131;27;20075;-47
2022/12/27 03:07:13;;;;;;;10.68;1.63;;;4.00;99.90;;;;;;5091728;27;20431;-44
2022/12/27 03:15:57;;;;;;;20.67;2.25;;;4.10;99.90;;;;;;5092472;28;20035;-46
2022/12/27 03:18:45;;;;;;;11.60;1.77;;;4.10;99.90;;;;;;5091135;28;20739;-42
2022/12/27 03:27:16;;;;;;;14.93;1.95;;;4.40;99.90;;;;;;5069081;28;20821;-47
2022/12/27 03:35:21;;;;;;;19.75;3.85;;;4.40;99.90;;;;;;5091600;28;20098;-43
2022/12/27 03:38:02;;;;;;;11.23;2.05;;;4.30;99.90;;;;;;5090901;28;20101;-47
2022/12/27 03:43:44;;;;;;;14.73;3.80;;;;;;;;;;5092486;28;20080;-48
2022/12/27 03:46:32;;;;;;;10.50;2.33;;;4.10;99.90;;;;;;5091319;28;20104;-45
2022/12/27 03:48:58;;;;;;;12.25;2.17;;;;;;;;;;5093005;28;20051;-47
2022/12/27 03:51:26;;;;;;;12.52;2.25;;;4.40;99.90;;;;;;5092308;28;20047;-44
2022/12/27 03:53:59;;;;;;;12.90;2.08;;;4.40;99.90;;;;;;5092842;28;20158;-45
2022/12/27 03:56:26;;;;;;;19.83;3.42;;;;;;;;;;5092814;28;20115;-48
2022/12/27 03:58:52;;;;;;;8.45;1.60;;;;;;;;;;5092106;28;22240;-47
2022/12/27 04:01:18;;;;;;;10.18;1.55;;;;;;;;;;5093024;28;20521;-45
2022/12/27 04:03:44;;;;;;;12.68;1.85;;;;;;;;;;5093059;28;20086;-44
2022/12/27 04:06:10;;;;;;;11.00;2.10;;;4.20;99.90;;;;;;5092563;28;20747;-43
2022/12/27 04:36:05;;;;;;;12.70;2.00;;;;;;;;;;5092140;28;20048;-44
2022/12/27 04:38:31;;;;;;;14.75;2.25;;;;;;;;;;5092630;28;20551;-43
2022/12/27 04:55:20;;;;;;;16.00;2.58;;;4.00;99.90;;;;;;5095065;27;20071;-46
2022/12/27 04:57:47;;;;;;;12.40;2.30;;;;;;;;;;5095923;27;20091;-47
2022/12/27 05:02:59;;;;;;;11.05;2.00;;;4.20;99.90;;;;;;5096918;27;20531;-47
2022/12/27 05:05:25;;;;;;;11.07;2.20;;;;;;;;;;5095953;28;20134;-47
2022/12/27 05:16:06;;;;;;;11.00;2.42;;;;;;;;;;5095056;27;20063;-45
2022/12/27 05:18:33;;;;;;;10.77;1.70;;;;;;;;;;5094476;27;20071;-46
2022/12/27 05:21:03;;;;;;;13.40;1.92;;;3.80;99.90;;;;;;5094491;27;20065;-45
2022/12/27 05:26:22;;;;;;;12.23;1.88;;;3.70;99.90;;;;;;5094770;27;20043;-48
2022/12/27 05:28:48;;;;;;;10.80;1.88;;;;;;;;;;5093617;27;20602;-47
2022/12/27 05:31:14;;;;;;;13.40;2.90;;;;;;;;;;5094554;27;20039;-46
2022/12/27 05:33:40;;;;;;;15.93;2.78;;;;;;;;;;5094398;27;20062;-44
2022/12/27 05:36:07;;;;;;;14.27;2.15;;;3.60;99.90;;;;;;5093452;27;20036;-43
2022/12/27 05:38:33;;;;;;;12.35;2.28;;;;;;;;;;5094129;27;20031;-45
2022/12/27 05:41:00;;;;;;;13.82;2.35;;;3.70;99.90;;;;;;5095170;27;20038;-46
2022/12/27 05:43:27;;;;;;;18.65;2.22;;;3.40;99.90;;;;;;5094520;27;20043;-47
2022/12/27 05:45:53;;;;;;;10.90;2.20;;;;;;;;;;5093920;28;20653;-45
2022/12/27 05:48:19;;;;;;;8.55;1.85;;;;;;;;;;5093036;28;20035;-46
2022/12/27 05:50:45;;;;;;;12.30;2.25;;;;;;;;;;5093494;28;20057;-48
2022/12/27 05:53:11;;;;;;;12.77;1.55;;;;;;;;;;5093606;27;20615;-44
2022/12/27 05:55:37;;;;;;;17.05;2.00;;;;;;;;;;5093383;28;20044;-47
2022/12/27 05:58:03;;;;;;;17.95;1.90;;;;;;;;;;5092559;28;20575;-44
2022/12/27 06:00:30;;;;;;;13.13;2.47;;;;;;;;;;5093004;27;20520;-49
2022/12/27 06:02:56;;;;;;;13.98;2.28;;;;;;;;;;5094052;27;20461;-47
2022/12/27 06:05:22;;;;;;;15.77;2.50;;;;;;;;;;5094091;27;20113;-45
2022/12/27 06:07:48;;;;;;;15.65;3.28;;;;;;;;;;5092684;27;20184;-47
2022/12/27 06:10:14;;;;;;;13.10;2.38;;;;;;;;;;5093097;27;20044;-46
2022/12/27 06:12:40;;;;;;;16.70;2.55;;;;;;;;;;5093526;27;20424;-48
2022/12/27 06:15:06;;;;;;;13.80;2.10;;;3.40;99.90;;;;;;5091879;28;20044;-48
2022/12/27 06:17:32;;;;;;;21.08;2.55;;;;;;;;;;5093984;27;20051;-47
2022/12/27 06:19:58;;;;;;;12.98;2.30;;;;;;;;;;5093328;27;20393;-45
2022/12/27 06:22:24;;;;;;;15.45;2.33;;;;;;;;;;5092760;28;20209;-44
2022/12/27 06:24:50;;;;;;;14.65;2.28;;;;;;;;;;5092916;27;20052;-45
2022/12/27 06:27:16;;;;;;;19.30;3.22;;;;;;;;;;5092719;27;20082;-44
2022/12/27 06:29:42;;;;;;;19.67;2.53;;;;;;;;;;5092582;27;20091;-43
2022/12/27 06:32:08;;;;;;;13.15;2.00;;;;;;;;;;5091964;27;20036;-45
2022/12/27 06:34:35;;;;;;;13.60;2.22;;;;;;;;;;5092637;28;20040;-46
2022/12/27 06:37:01;;;;;;;17.45;2.67;;;;;;;;;;5093487;27;20134;-45
2022/12/27 06:39:27;;;;;;;18.45;2.05;;;;;;;;;;5092652;27;20870;-45
2022/12/27 06:41:55;;;;;;;18.35;2.97;;;;;;;;;;5091821;27;20072;-46
2022/12/27 06:44:21;;;;;;;14.68;1.83;;;;;;;;;;5094388;27;20036;-45
2022/12/27 06:46:47;;;;;;;19.55;2.30;;;;;;;;;;5094484;27;20035;-48
2022/12/27 06:49:13;;;;;;;16.02;2.55;;;;;;;;;;5092964;28;20093;-50
2022/12/27 06:51:40;;;;;;;9.70;2.00;;;;;;;;;;5092841;27;20080;-46
2022/12/27 06:54:06;;;;;;;11.65;2.20;;;;;;;;;;5093343;27;20543;-44
2022/12/27 06:56:32;;;;;;;9.85;1.92;;;;;;;;;;5092935;27;20043;-48
2022/12/27 06:58:58;;;;;;;13.20;2.33;;;;;;;;;;5092348;28;20050;-43
2022/12/27 07:01:25;;;;;;;18.02;3.65;;;3.00;99.90;;;;;;5092080;28;20047;-48
2022/12/27 07:03:53;;;;;;;13.85;2.42;;;2.90;99.90;;;;;;5090526;27;20575;-44
2022/12/27 07:06:21;;;;;;;14.82;2.20;;;2.80;99.90;;;;;;5091982;28;20515;-44
2022/12/27 07:08:48;;;;;;;14.63;2.40;;;3.20;99.90;;;;;;5092853;27;20203;-48
2022/12/27 07:11:16;;;;;;;13.60;2.58;;;3.00;99.90;;;;;;5094355;28;20031;-48
2022/12/27 07:13:47;;;;;;;15.25;2.53;;;3.10;99.90;;;;;;5092011;28;20669;-47
2022/12/27 07:16:15;;;;;;;12.15;2.25;;;2.90;99.90;;;;;;5091808;28;20074;-49
2022/12/27 07:18:42;;;;;;;15.23;2.20;;;;;;;;;;5092728;27;20079;-46
2022/12/27 07:21:11;;;;;;;16.63;2.28;;;3.00;99.90;;;;;;5092472;27;20073;-44
2022/12/27 07:23:37;;;;;;;10.30;2.42;;;3.30;99.90;;;;;;5093001;28;20043;-45
2022/12/27 07:26:05;;;;;;;14.98;1.90;;;3.20;99.90;;;;;;5094306;28;20035;-49
2022/12/27 07:28:31;;;;;;;12.57;2.08;;;;;;;;;;5094870;28;20515;-44
2022/12/27 07:30:57;;;;;;;12.43;2.92;;;;;;;;;;5093357;28;20051;-49
2022/12/27 07:33:24;;;;;;;12.18;2.28;;;;;;;;;;5093179;28;20042;-50
2022/12/27 07:35:56;;;;;;;16.90;2.47;;;3.10;99.90;;;;;;5094026;28;21159;-43
2022/12/27 07:38:22;;;;;;;15.93;2.72;;;;;;;;;;5093926;28;20459;-43
2022/12/27 07:40:49;;;;;;;17.77;2.22;;;;;;;;;;5093864;28;20040;-44
2022/12/27 07:43:15;;;;;;;18.85;3.00;;;;;;;;;;5094673;28;20039;-48
2022/12/27 07:45:41;;;;;;;19.67;5.00;;;;;;;;;;5092253;28;20067;-45
2022/12/27 07:48:07;;;;;;;14.23;2.72;;;;;;;;;;5092349;28;20047;-45
2022/12/27 07:50:33;;;;;;;14.52;2.45;;;;;;;;;;5092724;28;20039;-44
2022/12/27 07:52:59;;;;;;;20.52;4.43;;;;;;;;;;5092431;28;20681;-46
2022/12/27 07:55:25;;;;;;;18.30;3.03;;;;;;;;;;5092286;28;20097;-49
2022/12/27 07:57:51;;;;;;;14.13;2.72;;;;;;;;;;5091214;28;20128;-47
2022/12/27 08:00:17;;;;;;;16.55;3.65;;;;;;;;;;5091489;28;20043;-48
2022/12/27 08:02:45;;;;;;;12.32;2.50;;;;;;;;;;5091542;28;20135;-44
2022/12/27 08:05:11;;;;;;;16.90;4.00;;;;;;;;;;5091137;28;20051;-45
2022/12/27 08:07:38;;;;;;;19.73;4.75;;;;;;;;;;5093248;28;20047;-50
2022/12/27 08:10:04;;;;;;;19.30;3.42;;;3.00;99.90;;;;;;5092415;28;20040;-44
2022/12/27 08:12:30;;;;;;;17.02;4.07;;;;;;;;;;5093015;28;20119;-45
2022/12/27 08:14:56;;;;;;;18.52;5.05;;;;;;;;;;5091542;28;20051;-46
2022/12/27 08:17:25;;;;;;;18.77;4.65;;;3.00;99.90;;;;;;5091983;28;20272;-47
2022/12/27 08:19:52;;;;;;;15.88;3.25;;;;;;;;;;5092312;28;20043;-48
2022/12/27 08:22:18;;;;;;;16.45;3.50;;;;;;;;;;5094873;27;20043;-44
2022/12/27 08:24:44;;;;;;;13.35;2.83;;;;;;;;;;5095488;27;20043;-46
2022/12/27 08:27:11;;;;;;;17.23;3.60;;;;;;;;;;5094761;27;20054;-44
2022/12/27 08:29:37;;;;;;;14.73;3.35;;;3.10;99.90;;;;;;5096544;27;20194;-46
2022/12/27 08:32:03;;;;;;;12.82;3.13;;;3.10;99.90;;;;;;5096022;27;20036;-44
2022/12/27 08:34:30;;;;;;;15.77;3.00;;;;;;;;;;5094157;27;20276;-43
2022/12/27 08:36:56;;;;;;;17.77;3.85;;;;;;;;;;5096115;27;20122;-44
2022/12/27 08:39:23;;;;;;;20.52;5.82;;;;;;;;;;5096054;27;20039;-44
2022/12/27 08:41:49;;;;;;;22.15;5.53;;;;;;;;;;5098119;27;20051;-46
2022/12/27 08:44:15;;;;;;;14.07;2.92;;;;;;;;;;5097091;27;20078;-44
2022/12/27 08:46:41;;;;;;;14.90;3.45;;;;;;;;;;5096532;28;20040;-43
2022/12/27 08:49:07;;;;;;;15.95;3.53;;;;;;;;;;5095857;27;20046;-44
2022/12/27 08:51:33;;;;;;;18.98;3.75;;;;;;;;;;5096688;27;20665;-45
2022/12/27 08:53:59;;;;;;;15.10;2.70;;;;;;;;;;5097005;27;20032;-45
2022/12/27 08:56:25;;;;;;;19.50;3.30;;;;;;;;;;5096280;27;20149;-46
2022/12/27 08:58:51;;;;;;;22.23;4.80;;;;;;;;;;5095082;27;20122;-45
2022/12/27 09:01:17;;;;;;;16.35;3.17;;;;;;;;;;5092985;28;20101;-44
2022/12/27 09:03:45;;;;;;;15.23;3.60;;;;;;;;;;5095688;27;20513;-47
2022/12/27 09:06:17;;;;;;;16.45;3.75;;;4.10;99.90;;;;;;5094184;27;20075;-45
2022/12/27 09:08:44;;;;;;;16.20;3.47;;;4.30;99.90;;;;;;5095726;27;20433;-47
2022/12/27 09:11:14;;;;;;;18.80;4.60;;;4.60;99.90;;;;;;5096958;27;20039;-47
2022/12/27 09:13:41;;;;;;;18.85;4.68;;;4.80;99.90;;;;;;5096809;27;20039;-47
2022/12/27 09:16:29;;;;;;;13.00;3.20;;;5.50;99.90;;;;;;5094924;27;20036;-45
2022/12/27 09:18:57;;;;;;;22.83;5.03;;;5.80;99.90;;;;;;5094097;27;20059;-48
2022/12/27 09:21:24;;;;;;;19.13;4.65;;;6.20;99.90;;;;;;5094473;27;20070;-47
2022/12/27 09:23:50;;;;;;;14.43;3.60;;;6.40;99.90;;;;;;5093563;27;20053;-45
2022/12/27 09:26:19;;;;;;;15.45;4.63;;;6.40;99.90;;;;;;5094680;28;20078;-45
2022/12/27 09:28:45;;;;;;;17.33;3.70;;;6.70;99.90;;;;;;5094663;27;20036;-48
2022/12/27 09:31:13;;;;;;;12.38;3.00;;;6.90;99.90;;;;;;5093464;28;20059;-47
2022/12/27 09:33:39;;;;;;;15.35;2.65;;;6.90;99.90;;;;;;5092674;27;20114;-45
2022/12/27 09:36:13;;;;;;;14.48;3.50;;;6.80;99.90;;;;;;5093987;27;20039;-46
2022/12/27 09:38:40;;;;;;;21.48;4.22;;;7.00;99.90;;;;;;5094633;27;20040;-45
2022/12/27 09:41:33;;;;;;;20.17;7.57;;;6.80;99.90;;;;;;5094130;27;20039;-46
2022/12/27 09:44:03;;;;;;;17.40;4.97;;;6.50;99.90;;;;;;5041139;28;20120;-46
2022/12/27 09:47:04;;;;;;;17.30;3.60;;;6.30;99.90;;;;;;5094562;27;20442;-45
2022/12/27 09:49:36;;;;;;;17.63;3.97;;;6.10;99.90;;;;;;5095314;28;20043;-44
2022/12/27 09:52:27;;;;;;;16.13;3.10;;;6.10;99.90;;;;;;5095014;28;22095;-48
2022/12/27 09:54:59;;;;;;;12.10;2.85;;;6.30;99.90;;;;;;5094624;27;20621;-47
2022/12/27 09:57:27;;;;;;;;;;;7.80;99.90;;;;;;5094443;28;21006;-46
2022/12/27 10:00:04;;;;;;;16.98;3.83;;;7.40;99.90;;;;;;5094937;27;19972;-45
2022/12/27 10:02:30;;;;;;;14.63;4.60;;;7.80;99.90;;;;;;5094516;27;20040;-47
2022/12/27 10:04:57;;;;;;;10.65;2.65;;;8.40;99.90;;;;;;5095377;27;20088;-46
2022/12/27 10:07:41;;;;;;;17.45;4.15;;;8.50;99.90;;;;;;5095008;28;20434;-45
2022/12/27 10:10:26;;;;;;;19.33;4.53;;;8.90;99.90;;;;;;5093607;27;20431;-47
2022/12/27 10:13:48;;;;;;;13.82;3.65;;;9.00;99.90;;;;;;5094726;27;20035;-46
2022/12/27 10:16:33;;;;;;;10.83;2.87;;;8.60;99.90;;;;;;5048679;28;20094;-44
2022/12/27 10:19:11;;;;;;;15.00;2.97;;;8.40;99.90;;;;;;5093249;27;20047;-46
2022/12/27 10:22:11;;;;;;;12.18;2.97;;;7.90;99.90;;;;;;5092536;27;20076;-45
2022/12/27 10:24:47;;;;;;;16.27;4.50;;;7.10;99.90;;;;;;5083456;27;20048;-44
2022/12/27 10:27:17;;;;;;;19.48;5.72;;;6.70;99.90;;;;;;5092331;27;20947;-47
2022/12/27 10:29:43;;;;;;;20.02;4.32;;;;;;;;;;5092339;27;20587;-49
2022/12/27 10:32:12;;;;;;;17.13;3.72;;;6.40;99.90;;;;;;5091500;27;20074;-44
2022/12/27 10:34:39;;;;;;;17.75;4.75;;;;;;;;;;5093501;27;20044;-46
2022/12/27 10:37:04;;;;;;;16.98;4.93;;;6.00;99.90;;;;;;5092836;27;20047;-45
2022/12/27 10:39:34;;;;;;;21.95;7.05;;;5.90;99.90;;;;;;5092425;28;20177;-45
2022/12/27 10:42:37;;;;;;;18.83;6.13;;;6.00;99.90;;;;;;5093297;27;20047;-47
2022/12/27 10:45:27;;;;;;;16.58;4.95;;;5.90;99.90;;;;;;5091960;28;20361;-47
2022/12/27 10:47:56;;;;;;;14.23;3.15;;;6.00;99.90;;;;;;5092240;28;20940;-46
2022/12/27 10:50:25;;;;;;;13.02;3.50;;;5.90;99.90;;;;;;5092321;28;20040;-45
2022/12/27 10:52:51;;;;;;;14.88;3.38;;;6.00;99.90;;;;;;5093015;27;20039;-47
2022/12/27 10:55:37;;;;;;;16.67;5.80;;;6.10;99.90;;;;;;5090297;28;20039;-47
2022/12/27 10:58:34;;;;;;;18.65;6.10;;;6.20;99.90;;;;;;5092116;28;20043;-45
2022/12/27 11:01:00;;;;;;;18.40;4.30;;;;;;;;;;5092686;27;20054;-46
2022/12/27 11:03:27;;;;;;;16.48;3.78;;;6.40;99.90;;;;;;5092136;28;20436;-44
2022/12/27 11:06:05;;;;;;;20.00;5.28;;;6.50;99.90;;;;;;5093794;28;20549;-49
2022/12/27 11:08:31;;;;;;;17.52;4.22;;;6.40;99.90;;;;;;5093218;27;20595;-45
2022/12/27 11:11:15;;;;;;;16.08;3.15;;;6.40;99.90;;;;;;5093431;28;20062;-45
2022/12/27 11:13:41;;;;;;;21.85;7.68;;;6.10;99.90;;;;;;5093836;28;20047;-46
2022/12/27 11:16:25;;;;;;;17.42;3.30;;;6.40;99.90;;;;;;5094264;28;20036;-46
2022/12/27 11:18:54;;;;;;;21.83;6.22;;;6.40;99.90;;;;;;5092722;28;20031;-46
2022/12/27 11:21:19;;;;;;;19.88;6.43;;;6.40;99.90;;;;;;5093035;27;20047;-46
2022/12/27 11:23:49;;;;;;;19.90;5.07;;;6.20;99.90;;;;;;5092351;28;20047;-44
2022/12/27 11:26:27;;;;;;;15.75;3.03;;;6.50;99.90;;;;;;5092719;28;20042;-44
2022/12/27 11:28:57;;;;;;;30.73;7.90;;;6.50;99.90;;;;;;5090772;28;20407;-46
2022/12/27 11:31:41;;;;;;;23.30;5.53;;;6.80;99.90;;;;;;5091105;28;20047;-47
2022/12/27 11:34:15;;;;;;;25.25;6.55;;;6.60;99.90;;;;;;5091435;28;21121;-47
2022/12/27 11:36:48;;;;;;;25.40;6.50;;;6.60;99.90;;;;;;5091159;28;20043;-45
2022/12/27 11:39:36;;;;;;;21.05;6.13;;;6.70;99.90;;;;;;5091032;28;20511;-48
2022/12/27 11:42:11;;;;;;;16.45;6.22;;;6.60;99.90;;;;;;5092225;28;20146;-47
2022/12/27 11:44:42;;;;;;;21.75;4.15;;;6.60;99.90;;;;;;5091839;28;20503;-46
2022/12/27 11:47:31;;;;;;;14.25;3.80;;;6.70;99.90;;;;;;5091221;28;20039;-47
2022/12/27 11:50:26;;;;;;;12.88;2.92;;;6.50;99.90;;;;;;5091393;28;20195;-45
2022/12/27 11:53:37;;;;;;;20.88;6.65;;;6.70;99.90;;;;;;5087669;28;20079;-47
2022/12/27 11:56:03;;;;;;;14.88;3.03;;;;;;;;;;5085529;27;20055;-46
2022/12/27 11:58:52;;;;;;;17.65;3.40;;;6.20;99.90;;;;;;5095729;27;20054;-45
2022/12/27 12:01:26;;;;;;;12.40;2.65;;;6.30;99.90;;;;;;5095845;27;20055;-47
2022/12/27 12:04:09;;;;;;;15.18;3.97;;;6.00;99.90;;;;;;5096556;27;20420;-47
2022/12/27 12:06:47;;;;;;;16.23;2.33;;;6.10;99.90;;;;;;5095715;27;20480;-46
2022/12/27 12:09:48;;;;;;;13.32;3.70;;;6.10;99.90;;;;;;5095830;27;20518;-45
2022/12/27 12:12:45;;;;;;;12.40;2.92;;;6.30;99.90;;;;;;5095504;27;20145;-49
2022/12/27 12:15:41;;;;;;;13.63;3.40;;;6.10;99.90;;;;;;5096650;27;20036;-45
2022/12/27 12:18:24;;;;;;;15.23;2.25;;;6.30;99.90;;;;;;5076996;27;20052;-50
2022/12/27 12:21:30;;;;;;;11.48;2.30;;;6.30;99.90;;;;;;5097646;27;20126;-45
2022/12/27 12:24:20;;;;;;;11.82;2.75;;;6.30;99.90;;;;;;5082090;27;20381;-45
2022/12/27 12:27:18;;;;;;;14.88;2.55;;;6.20;99.90;;;;;;5097674;27;20035;-46
2022/12/27 12:30:05;;;;;;;11.65;2.53;;;6.20;99.90;;;;;;5094934;27;20446;-45
2022/12/27 12:32:37;;;;;;;15.60;2.17;;;6.20;99.90;;;;;;5096178;27;20836;-45
2022/12/27 12:35:30;;;;;;;8.88;1.85;;;6.20;99.90;;;;;;5096635;27;20044;-47
2022/12/27 12:38:16;;;;;;;8.13;1.65;;;6.10;99.90;;;;;;5096563;27;20046;-50
2022/12/27 12:41:03;;;;;;;11.07;2.13;;;5.90;99.90;;;;;;5094976;27;20129;-48
2022/12/27 12:43:57;;;;;;;11.50;2.47;;;6.00;99.90;;;;;;5095563;27;20040;-46
2022/12/27 12:46:40;;;;;;;16.92;2.60;;;5.90;99.90;;;;;;5095425;27;20130;-44
2022/12/27 12:49:34;;;;;;;17.25;2.10;;;5.90;99.90;;;;;;5095367;27;20047;-47
2022/12/27 12:52:18;;;;;;;14.52;2.35;;;5.90;99.90;;;;;;5095304;27;20087;-48
2022/12/27 12:55:12;;;;;;;23.67;2.47;;;5.90;99.90;;;;;;5094122;27;20047;-46
2022/12/27 12:57:56;;;;;;;16.88;2.13;;;7.50;99.90;;;;;;5094490;27;20027;-47
2022/12/27 13:00:47;;;;;;;13.65;2.03;;;6.00;99.90;;;;;;5095151;27;20035;-46
2022/12/27 13:03:38;;;;;;;14.90;2.20;;;5.90;99.90;;;;;;5094696;27;20035;-50
2022/12/27 13:06:21;;;;;;;14.68;2.30;;;6.00;99.90;;;;;;5093407;27;20044;-45
2022/12/27 13:09:13;;;;;;;10.77;2.72;;;5.90;99.90;;;;;;5095332;27;20220;-45
2022/12/27 13:12:03;;;;;;;7.55;2.33;;;6.00;99.90;;;;;;5095453;28;20051;-44
2022/12/27 13:14:53;;;;;;;10.38;2.35;;;6.10;99.90;;;;;;5095524;28;20792;-47
2022/12/27 13:17:50;;;;;;;11.75;2.30;;;6.00;99.90;;;;;;5094467;27;20036;-47
2022/12/27 13:20:37;;;;;;;13.88;2.50;;;6.00;99.90;;;;;;5091746;27;20128;-45
2022/12/27 13:23:03;;;;;;;11.98;2.08;;;;;;;;;;5093918;27;20040;-46
2022/12/27 13:25:49;;;;;;;13.18;2.67;;;6.00;99.90;;;;;;5094396;27;20803;-46
2022/12/27 13:28:30;;;;;;;12.18;2.65;;;5.90;99.90;;;;;;5093436;27;20131;-47
2022/12/27 13:31:24;;;;;;;15.68;3.67;;;5.90;99.90;;;;;;5093364;27;20040;-44
2022/12/27 13:34:25;;;;;;;16.60;2.67;;;5.80;99.90;;;;;;5095207;27;20104;-44
2022/12/27 13:37:21;;;;;;;12.98;2.80;;;5.80;99.90;;;;;;5094738;27;20051;-47
2022/12/27 13:39:47;;;;;;;14.43;3.85;;;;;;;;;;5095789;27;20065;-44
2022/12/27 13:42:50;;;;;;;13.15;2.72;;;5.60;99.90;;;;;;5095185;27;20061;-45
2022/12/27 13:45:31;;;;;;;13.23;3.10;;;5.60;99.90;;;;;;5095219;27;20046;-45
2022/12/27 13:48:43;;;;;;;12.45;2.83;;;5.50;99.90;;;;;;5093449;28;20636;-45
2022/12/27 13:51:32;;;;;;;17.42;3.72;;;5.50;99.90;;;;;;5079855;27;20079;-49
2022/12/27 13:53:58;;;;;;;19.80;4.05;;;;;;;;;;5095364;27;20043;-45
2022/12/27 13:56:42;;;;;;;13.60;3.80;;;5.60;99.90;;;;;;5094552;27;20039;-50
2022/12/27 13:59:26;;;;;;;13.73;3.60;;;5.40;99.90;;;;;;5093720;27;20051;-45
2022/12/27 14:02:26;;;;;;;16.55;3.55;;;5.50;99.90;;;;;;5094612;28;20047;-48
2022/12/27 14:05:01;;;;;;;19.70;4.22;;;5.60;99.90;;;;;;5093116;27;20043;-45
2022/12/27 14:07:55;;;;;;;13.52;3.88;;;5.60;99.90;;;;;;5093323;28;20052;-48
2022/12/27 14:10:30;;;;;;;12.77;3.35;;;5.60;99.90;;;;;;5093554;27;20116;-47
2022/12/27 14:13:01;;;;;;;16.77;4.13;;;5.60;99.90;;;;;;5093944;27;20520;-48
2022/12/27 14:15:27;;;;;;;12.30;3.75;;;;;;;;;;5092801;27;20039;-48
2022/12/27 14:18:17;;;;;;;14.55;4.00;;;5.70;99.90;;;;;;5092696;27;20048;-47
2022/12/27 14:21:01;;;;;;;12.02;3.83;;;5.60;99.90;;;;;;5092721;27;20400;-47
2022/12/27 14:23:49;;;;;;;20.30;3.92;;;5.70;99.90;;;;;;5093249;28;20055;-45
2022/12/27 14:26:15;;;;;;;12.70;4.28;;;;;;;;;;5093245;27;20031;-49
2022/12/27 14:28:42;;;;;;;14.52;4.63;;;;;;;;;;5092395;27;20059;-48
2022/12/27 14:31:41;;;;;;;14.85;4.47;;;5.70;99.90;;;;;;5092768;28;20085;-49
2022/12/27 14:34:27;;;;;;;22.90;4.93;;;5.90;99.90;;;;;;5092892;27;20047;-45
2022/12/27 14:37:02;;;;;;;16.38;5.25;;;5.70;99.90;;;;;;5092372;27;20048;-50
2022/12/27 14:40:02;;;;;;;20.52;5.93;;;5.60;99.90;;;;;;5093482;27;20621;-49
2022/12/27 14:42:28;;;;;;;17.00;4.93;;;;;;;;;;5092355;27;20598;-45
2022/12/27 14:45:09;;;;;;;16.50;5.38;;;5.70;99.90;;;;;;5093063;27;20462;-44
2022/12/27 14:48:03;;;;;;;12.13;4.25;;;5.50;99.90;;;;;;5091899;28;20090;-48
2022/12/27 14:50:58;;;;;;;19.42;5.15;;;5.60;99.90;;;;;;5093235;27;20040;-46
2022/12/27 14:53:56;;;;;;;17.77;6.00;;;5.60;99.90;;;;;;5091725;27;20143;-45
2022/12/27 14:56:52;;;;;;;13.55;4.68;;;5.50;99.90;;;;;;5091655;28;20391;-46
2022/12/27 14:59:33;;;;;;;19.33;5.13;;;5.30;99.90;;;;;;5092932;28;20048;-49
2022/12/27 15:02:36;;;;;;;23.77;6.53;;;5.40;99.90;;;;;;5096072;27;20545;-47
2022/12/27 15:05:34;;;;;;;15.40;5.05;;;5.30;99.90;;;;;;5093724;27;20395;-44
2022/12/27 15:08:22;;;;;;;12.77;5.57;;;5.20;99.90;;;;;;5093882;27;20399;-44
2022/12/27 15:11:33;;;;;;;22.98;7.60;;;5.10;99.90;;;;;;5093018;28;20042;-46
2022/12/27 15:14:26;;;;;;;17.17;6.20;;;5.20;99.90;;;;;;5095469;28;20122;-45
2022/12/27 15:16:52;;;;;;;15.32;6.00;;;;;;;;;;5094758;28;20807;-47
2022/12/27 15:19:24;;;;;;;23.00;6.85;;;5.00;99.90;;;;;;5093136;28;20039;-50
2022/12/27 15:22:14;;;;;;;18.70;7.03;;;5.00;99.90;;;;;;5094066;28;20043;-46
2022/12/27 15:24:50;;;;;;;16.80;6.95;;;4.90;99.90;;;;;;5093337;28;20043;-45
2022/12/27 15:27:16;;;;;;;19.30;7.78;;;;;;;;;;5092287;27;20048;-48
2022/12/27 15:30:15;;;;;;;23.42;8.27;;;5.00;99.90;;;;;;5091397;27;20044;-44
2022/12/27 15:32:41;;;;;;;18.20;7.93;;;;;;;;;;5091775;28;20391;-46
2022/12/27 15:35:32;;;;;;;23.02;10.73;;;5.20;99.90;;;;;;5091842;28;20111;-46
2022/12/27 15:38:35;;;;;;;26.10;9.32;;;5.30;99.90;;;;;;5072414;28;20052;-49
2022/12/27 15:41:07;;;;;;;20.38;8.93;;;5.30;99.90;;;;;;5091646;28;20051;-48
2022/12/27 15:43:47;;;;;;;20.73;9.65;;;5.20;99.90;;;;;;5092199;28;20138;-49
2022/12/27 15:46:16;;;;;;;17.35;8.82;;;5.30;99.90;;;;;;5091624;28;20039;-46